sensor_id;sensor_type;location;lat;lon;timestamp;temperature;humidity
44121;DHT22;29783;52.504;13.478;2023-02-28T00:01:21;1.80;77.20
44121;DHT22;29783;52.504;13.478;2023-02-28T00:03:47;1.80;77.10
44121;DHT22;29783;52.504;13.478;2023-02-28T00:06:13;1.80;77.00
44121;DHT22;29783;52.504;13.478;2023-02-28T00:08:39;1.80;77.10
44121;DHT22;29783;52.504;13.478;2023-02-28T00:11:08;1.80;77.10
44121;DHT22;29783;52.504;13.478;2023-02-28T00:13:36;1.80;77.00
44121;DHT22;29783;52.504;13.478;2023-02-28T00:16:13;1.80;76.60
44121;DHT22;29783;52.504;13.478;2023-02-28T00:18:40;1.80;76.70
44121;DHT22;29783;52.504;13.478;2023-02-28T00:21:06;1.80;76.90
44121;DHT22;29783;52.504;13.478;2023-02-28T00:23:32;1.80;76.80
44121;DHT22;29783;52.504;13.478;2023-02-28T00:25:59;1.80;76.80
44121;DHT22;29783;52.504;13.478;2023-02-28T00:28:25;1.80;76.90
44121;DHT22;29783;52.504;13.478;2023-02-28T00:30:51;1.90;76.80
44121;DHT22;29783;52.504;13.478;2023-02-28T00:33:17;1.90;76.80
44121;DHT22;29783;52.504;13.478;2023-02-28T00:35:43;1.90;76.80
44121;DHT22;29783;52.504;13.478;2023-02-28T00:38:12;1.80;76.80
44121;DHT22;29783;52.504;13.478;2023-02-28T00:40:38;1.80;76.80
44121;DHT22;29783;52.504;13.478;2023-02-28T00:43:04;1.80;76.90
44121;DHT22;29783;52.504;13.478;2023-02-28T00:45:30;1.80;76.90
44121;DHT22;29783;52.504;13.478;2023-02-28T00:47:56;1.80;77.10
44121;DHT22;29783;52.504;13.478;2023-02-28T00:50:22;1.80;77.00
44121;DHT22;29783;52.504;13.478;2023-02-28T00:52:48;1.80;77.30
44121;DHT22;29783;52.504;13.478;2023-02-28T00:55:14;1.80;77.30
44121;DHT22;29783;52.504;13.478;2023-02-28T00:57:40;1.70;77.60
44121;DHT22;29783;52.504;13.478;2023-02-28T01:00:07;1.70;77.70
44121;DHT22;29783;52.504;13.478;2023-02-28T01:02:33;1.70;77.80
44121;DHT22;29783;52.504;13.478;2023-02-28T01:04:59;1.60;78.00
44121;DHT22;29783;52.504;13.478;2023-02-28T01:07:25;1.60;78.10
44121;DHT22;29783;52.504;13.478;2023-02-28T01:09:52;1.60;78.00
44121;DHT22;29783;52.504;13.478;2023-02-28T01:12:17;1.60;78.10
44121;DHT22;29783;52.504;13.478;2023-02-28T01:14:43;1.60;78.70
44121;DHT22;29783;52.504;13.478;2023-02-28T01:17:09;1.50;78.70
44121;DHT22;29783;52.504;13.478;2023-02-28T01:19:35;1.50;78.60
44121;DHT22;29783;52.504;13.478;2023-02-28T01:22:03;1.50;78.60
44121;DHT22;29783;52.504;13.478;2023-02-28T01:24:29;1.40;78.60
44121;DHT22;29783;52.504;13.478;2023-02-28T01:26:55;1.40;78.80
44121;DHT22;29783;52.504;13.478;2023-02-28T01:29:21;1.30;78.80
44121;DHT22;29783;52.504;13.478;2023-02-28T01:31:47;1.30;78.90
44121;DHT22;29783;52.504;13.478;2023-02-28T01:34:13;1.30;79.20
44121;DHT22;29783;52.504;13.478;2023-02-28T01:36:39;1.20;79.50
44121;DHT22;29783;52.504;13.478;2023-02-28T01:39:05;1.10;79.70
44121;DHT22;29783;52.504;13.478;2023-02-28T01:41:33;1.00;80.00
44121;DHT22;29783;52.504;13.478;2023-02-28T01:46:24;0.90;80.30
44121;DHT22;29783;52.504;13.478;2023-02-28T01:49:08;0.80;80.60
44121;DHT22;29783;52.504;13.478;2023-02-28T01:54:10;0.50;81.30
44121;DHT22;29783;52.504;13.478;2023-02-28T01:57:04;0.40;81.70
44121;DHT22;29783;52.504;13.478;2023-02-28T01:59:34;0.20;82.20
44121;DHT22;29783;52.504;13.478;2023-02-28T02:02:04;0.00;82.80
44121;DHT22;29783;52.504;13.478;2023-02-28T02:07:21;-3276.70;83.70
44121;DHT22;29783;52.504;13.478;2023-02-28T02:09:48;-3276.60;84.10
44121;DHT22;29783;52.504;13.478;2023-02-28T02:15:13;-3276.50;84.80
44121;DHT22;29783;52.504;13.478;2023-02-28T02:17:48;-3276.40;85.00
44121;DHT22;29783;52.504;13.478;2023-02-28T02:23:51;-3276.30;85.30
44121;DHT22;29783;52.504;13.478;2023-02-28T02:34:22;-3276.10;86.40
44121;DHT22;29783;52.504;13.478;2023-02-28T02:36:57;-3276.00;86.60
44121;DHT22;29783;52.504;13.478;2023-02-28T02:42:20;-3275.90;87.10
44121;DHT22;29783;52.504;13.478;2023-02-28T02:44:55;-3275.90;87.20
44121;DHT22;29783;52.504;13.478;2023-02-28T02:47:26;-3275.80;87.40
44121;DHT22;29783;52.504;13.478;2023-02-28T02:49:57;-3275.80;87.60
44121;DHT22;29783;52.504;13.478;2023-02-28T02:52:39;-3275.70;87.80
44121;DHT22;29783;52.504;13.478;2023-02-28T02:55:08;-3275.70;88.00
44121;DHT22;29783;52.504;13.478;2023-02-28T02:57:48;-3275.70;88.30
44121;DHT22;29783;52.504;13.478;2023-02-28T03:00:23;-3275.70;88.50
44121;DHT22;29783;52.504;13.478;2023-02-28T03:02:52;-3275.70;88.60
44121;DHT22;29783;52.504;13.478;2023-02-28T03:05:48;-3275.70;88.70
44121;DHT22;29783;52.504;13.478;2023-02-28T03:08:15;-3275.70;88.70
44121;DHT22;29783;52.504;13.478;2023-02-28T03:10:43;-3275.70;88.80
44121;DHT22;29783;52.504;13.478;2023-02-28T03:19:24;-3275.80;88.80
44121;DHT22;29783;52.504;13.478;2023-02-28T03:27:16;-3275.70;88.80
44121;DHT22;29783;52.504;13.478;2023-02-28T03:29:49;-3275.70;88.80
44121;DHT22;29783;52.504;13.478;2023-02-28T03:32:51;-3275.70;88.90
44121;DHT22;29783;52.504;13.478;2023-02-28T03:35:14;-3275.70;88.90
44121;DHT22;29783;52.504;13.478;2023-02-28T03:37:50;-3275.70;89.00
44121;DHT22;29783;52.504;13.478;2023-02-28T03:40:21;-3275.70;88.90
44121;DHT22;29783;52.504;13.478;2023-02-28T03:42:53;-3275.60;89.00
44121;DHT22;29783;52.504;13.478;2023-02-28T03:45:31;-3275.60;89.10
44121;DHT22;29783;52.504;13.478;2023-02-28T03:48:02;-3275.50;89.10
44121;DHT22;29783;52.504;13.478;2023-02-28T03:50:37;-3275.50;89.30
44121;DHT22;29783;52.504;13.478;2023-02-28T03:55:42;-3275.30;89.50
44121;DHT22;29783;52.504;13.478;2023-02-28T03:58:30;-3275.30;89.80
44121;DHT22;29783;52.504;13.478;2023-02-28T04:01:23;-3275.20;89.80
44121;DHT22;29783;52.504;13.478;2023-02-28T04:03:51;-3275.20;89.90
44121;DHT22;29783;52.504;13.478;2023-02-28T04:06:20;-3275.20;90.20
44121;DHT22;29783;52.504;13.478;2023-02-28T04:08:46;-3275.20;90.30
44121;DHT22;29783;52.504;13.478;2023-02-28T04:11:39;-3275.20;90.20
44121;DHT22;29783;52.504;13.478;2023-02-28T04:14:07;-3275.20;90.50
44121;DHT22;29783;52.504;13.478;2023-02-28T04:16:36;-3275.10;90.40
44121;DHT22;29783;52.504;13.478;2023-02-28T04:19:04;-3275.10;90.50
44121;DHT22;29783;52.504;13.478;2023-02-28T04:21:35;-3275.10;90.60
44121;DHT22;29783;52.504;13.478;2023-02-28T04:24:02;-3275.10;90.50
44121;DHT22;29783;52.504;13.478;2023-02-28T04:26:35;-3275.00;90.50
44121;DHT22;29783;52.504;13.478;2023-02-28T04:29:14;-3275.00;90.60
44121;DHT22;29783;52.504;13.478;2023-02-28T04:31:45;-3275.00;90.60
44121;DHT22;29783;52.504;13.478;2023-02-28T04:34:12;-3274.90;90.70
44121;DHT22;29783;52.504;13.478;2023-02-28T04:36:38;-3274.90;90.90
44121;DHT22;29783;52.504;13.478;2023-02-28T04:39:04;-3274.90;90.90
44121;DHT22;29783;52.504;13.478;2023-02-28T04:41:30;-3274.80;91.00
44121;DHT22;29783;52.504;13.478;2023-02-28T04:43:56;-3274.80;91.10
44121;DHT22;29783;52.504;13.478;2023-02-28T04:46:22;-3274.80;91.20
44121;DHT22;29783;52.504;13.478;2023-02-28T04:48:48;-3274.80;91.40
44121;DHT22;29783;52.504;13.478;2023-02-28T04:51:16;-3274.80;91.30
44121;DHT22;29783;52.504;13.478;2023-02-28T04:53:42;-3274.70;91.40
44121;DHT22;29783;52.504;13.478;2023-02-28T04:56:11;-3274.70;91.40
44121;DHT22;29783;52.504;13.478;2023-02-28T04:58:37;-3274.70;91.40
44121;DHT22;29783;52.504;13.478;2023-02-28T05:01:16;-3274.70;91.50
44121;DHT22;29783;52.504;13.478;2023-02-28T05:03:43;-3274.70;91.60
44121;DHT22;29783;52.504;13.478;2023-02-28T05:06:10;-3274.70;91.70
44121;DHT22;29783;52.504;13.478;2023-02-28T05:08:37;-3274.70;91.60
44121;DHT22;29783;52.504;13.478;2023-02-28T05:11:04;-3274.60;91.60
44121;DHT22;29783;52.504;13.478;2023-02-28T05:13:30;-3274.70;91.90
44121;DHT22;29783;52.504;13.478;2023-02-28T05:15:56;-3274.60;91.80
44121;DHT22;29783;52.504;13.478;2023-02-28T05:18:22;-3274.60;91.80
44121;DHT22;29783;52.504;13.478;2023-02-28T05:20:48;-3274.60;91.90
44121;DHT22;29783;52.504;13.478;2023-02-28T05:23:15;-3274.60;91.80
44121;DHT22;29783;52.504;13.478;2023-02-28T05:25:42;-3274.60;91.80
44121;DHT22;29783;52.504;13.478;2023-02-28T05:28:08;-3274.50;92.00
44121;DHT22;29783;52.504;13.478;2023-02-28T05:30:34;-3274.50;91.90
44121;DHT22;29783;52.504;13.478;2023-02-28T05:33:00;-3274.50;92.00
44121;DHT22;29783;52.504;13.478;2023-02-28T05:35:26;-3274.50;92.10
44121;DHT22;29783;52.504;13.478;2023-02-28T05:37:52;-3274.50;92.10
44121;DHT22;29783;52.504;13.478;2023-02-28T05:40:18;-3274.50;92.10
44121;DHT22;29783;52.504;13.478;2023-02-28T05:42:46;-3274.50;92.10
44121;DHT22;29783;52.504;13.478;2023-02-28T05:45:12;-3274.40;92.20
44121;DHT22;29783;52.504;13.478;2023-02-28T05:47:38;-3274.40;92.20
44121;DHT22;29783;52.504;13.478;2023-02-28T05:50:05;-3274.40;92.30
44121;DHT22;29783;52.504;13.478;2023-02-28T05:52:31;-3274.40;92.30
44121;DHT22;29783;52.504;13.478;2023-02-28T05:54:57;-3274.40;92.40
44121;DHT22;29783;52.504;13.478;2023-02-28T05:57:24;-3274.40;92.40
44121;DHT22;29783;52.504;13.478;2023-02-28T05:59:50;-3274.50;92.50
44121;DHT22;29783;52.504;13.478;2023-02-28T06:02:17;-3274.50;92.40
44121;DHT22;29783;52.504;13.478;2023-02-28T06:04:43;-3274.40;92.40
44121;DHT22;29783;52.504;13.478;2023-02-28T06:07:10;-3274.40;92.50
44121;DHT22;29783;52.504;13.478;2023-02-28T06:09:36;-3274.50;92.60
44121;DHT22;29783;52.504;13.478;2023-02-28T06:12:03;-3274.50;92.60
44121;DHT22;29783;52.504;13.478;2023-02-28T06:14:32;-3274.50;92.70
44121;DHT22;29783;52.504;13.478;2023-02-28T06:16:59;-3274.50;92.70
44121;DHT22;29783;52.504;13.478;2023-02-28T06:19:25;-3274.50;92.70
44121;DHT22;29783;52.504;13.478;2023-02-28T06:21:52;-3274.60;92.80
44121;DHT22;29783;52.504;13.478;2023-02-28T06:24:22;-3274.60;92.80
44121;DHT22;29783;52.504;13.478;2023-02-28T06:26:48;-3274.70;92.90
44121;DHT22;29783;52.504;13.478;2023-02-28T06:29:14;-3274.70;92.90
44121;DHT22;29783;52.504;13.478;2023-02-28T06:31:47;-3274.70;92.80
44121;DHT22;29783;52.504;13.478;2023-02-28T06:34:13;-3274.80;92.80
44121;DHT22;29783;52.504;13.478;2023-02-28T06:36:40;-3274.80;92.70
44121;DHT22;29783;52.504;13.478;2023-02-28T06:39:07;-3274.80;92.70
44121;DHT22;29783;52.504;13.478;2023-02-28T06:41:34;-3275.00;93.10
44121;DHT22;29783;52.504;13.478;2023-02-28T06:44:08;-3275.20;92.50
44121;DHT22;29783;52.504;13.478;2023-02-28T06:46:36;-3275.20;92.20
44121;DHT22;29783;52.504;13.478;2023-02-28T06:49:03;-3275.20;92.00
44121;DHT22;29783;52.504;13.478;2023-02-28T06:51:30;-3275.20;91.70
44121;DHT22;29783;52.504;13.478;2023-02-28T06:53:56;-3275.30;91.60
44121;DHT22;29783;52.504;13.478;2023-02-28T06:56:22;-3275.30;91.50
44121;DHT22;29783;52.504;13.478;2023-02-28T06:58:51;-3275.40;91.30
44121;DHT22;29783;52.504;13.478;2023-02-28T07:01:18;-3275.50;91.20
44121;DHT22;29783;52.504;13.478;2023-02-28T07:03:44;-3275.60;90.90
44121;DHT22;29783;52.504;13.478;2023-02-28T07:06:11;-3275.70;90.60
44121;DHT22;29783;52.504;13.478;2023-02-28T07:08:37;-3275.70;90.10
44121;DHT22;29783;52.504;13.478;2023-02-28T07:11:03;-3275.80;89.60
44121;DHT22;29783;52.504;13.478;2023-02-28T07:13:29;-3275.90;89.10
44121;DHT22;29783;52.504;13.478;2023-02-28T07:16:00;-3276.00;88.40
44121;DHT22;29783;52.504;13.478;2023-02-28T07:18:26;-3276.10;87.80
44121;DHT22;29783;52.504;13.478;2023-02-28T07:20:52;-3276.20;87.20
44121;DHT22;29783;52.504;13.478;2023-02-28T07:23:19;-3276.30;86.60
44121;DHT22;29783;52.504;13.478;2023-02-28T07:25:44;-3276.40;85.80
44121;DHT22;29783;52.504;13.478;2023-02-28T07:28:11;-3276.50;85.20
44121;DHT22;29783;52.504;13.478;2023-02-28T07:30:37;-3276.50;84.60
44121;DHT22;29783;52.504;13.478;2023-02-28T07:33:03;-3276.70;83.80
44121;DHT22;29783;52.504;13.478;2023-02-28T07:35:29;-3276.70;82.70
44121;DHT22;29783;52.504;13.478;2023-02-28T07:37:57;0.00;81.50
44121;DHT22;29783;52.504;13.478;2023-02-28T07:40:23;0.00;81.10
44121;DHT22;29783;52.504;13.478;2023-02-28T07:42:49;0.00;80.50
44121;DHT22;29783;52.504;13.478;2023-02-28T07:45:15;0.10;80.30
44121;DHT22;29783;52.504;13.478;2023-02-28T07:47:41;0.20;79.70
44121;DHT22;29783;52.504;13.478;2023-02-28T07:50:10;0.30;78.50
44121;DHT22;29783;52.504;13.478;2023-02-28T07:52:40;0.50;76.90
44121;DHT22;29783;52.504;13.478;2023-02-28T07:55:07;0.80;73.70
44121;DHT22;29783;52.504;13.478;2023-02-28T07:57:33;1.10;72.30
44121;DHT22;29783;52.504;13.478;2023-02-28T07:59:59;1.40;71.90
44121;DHT22;29783;52.504;13.478;2023-02-28T08:02:25;1.30;71.20
44121;DHT22;29783;52.504;13.478;2023-02-28T08:04:51;1.30;70.80
44121;DHT22;29783;52.504;13.478;2023-02-28T08:07:18;1.40;69.60
44121;DHT22;29783;52.504;13.478;2023-02-28T08:09:44;1.40;69.00
44121;DHT22;29783;52.504;13.478;2023-02-28T08:12:11;1.70;66.50
44121;DHT22;29783;52.504;13.478;2023-02-28T08:14:37;1.80;65.80
44121;DHT22;29783;52.504;13.478;2023-02-28T08:17:04;1.80;66.30
44121;DHT22;29783;52.504;13.478;2023-02-28T08:19:30;1.80;66.10
44121;DHT22;29783;52.504;13.478;2023-02-28T08:21:56;1.90;65.90
44121;DHT22;29783;52.504;13.478;2023-02-28T08:24:22;1.90;65.80
44121;DHT22;29783;52.504;13.478;2023-02-28T08:26:48;2.00;65.90
44121;DHT22;29783;52.504;13.478;2023-02-28T08:29:14;2.10;64.70
44121;DHT22;29783;52.504;13.478;2023-02-28T08:31:40;2.30;63.30
44121;DHT22;29783;52.504;13.478;2023-02-28T08:34:11;2.30;60.40
44121;DHT22;29783;52.504;13.478;2023-02-28T08:36:38;2.30;59.30
44121;DHT22;29783;52.504;13.478;2023-02-28T08:39:04;2.50;58.90
44121;DHT22;29783;52.504;13.478;2023-02-28T08:41:33;2.50;58.00
44121;DHT22;29783;52.504;13.478;2023-02-28T08:44:00;2.60;58.50
44121;DHT22;29783;52.504;13.478;2023-02-28T08:46:28;2.70;58.20
44121;DHT22;29783;52.504;13.478;2023-02-28T08:48:55;2.80;57.70
44121;DHT22;29783;52.504;13.478;2023-02-28T08:51:24;2.80;55.70
44121;DHT22;29783;52.504;13.478;2023-02-28T08:53:58;2.90;56.10
44121;DHT22;29783;52.504;13.478;2023-02-28T08:56:26;3.00;55.30
44121;DHT22;29783;52.504;13.478;2023-02-28T08:58:55;3.10;55.00
44121;DHT22;29783;52.504;13.478;2023-02-28T09:01:24;3.20;54.20
44121;DHT22;29783;52.504;13.478;2023-02-28T09:03:53;3.30;53.90
44121;DHT22;29783;52.504;13.478;2023-02-28T09:06:21;3.30;53.00
44121;DHT22;29783;52.504;13.478;2023-02-28T09:08:48;3.40;52.70
44121;DHT22;29783;52.504;13.478;2023-02-28T09:11:15;3.40;51.40
44121;DHT22;29783;52.504;13.478;2023-02-28T09:13:41;3.50;51.30
44121;DHT22;29783;52.504;13.478;2023-02-28T09:16:10;3.50;51.20
44121;DHT22;29783;52.504;13.478;2023-02-28T09:18:36;3.70;51.50
44121;DHT22;29783;52.504;13.478;2023-02-28T09:21:07;3.90;52.60
44121;DHT22;29783;52.504;13.478;2023-02-28T09:23:34;4.00;52.30
44121;DHT22;29783;52.504;13.478;2023-02-28T09:26:00;3.90;51.30
44121;DHT22;29783;52.504;13.478;2023-02-28T09:28:26;4.10;50.40
44121;DHT22;29783;52.504;13.478;2023-02-28T09:30:53;4.10;48.90
44121;DHT22;29783;52.504;13.478;2023-02-28T09:33:20;4.10;49.00
44121;DHT22;29783;52.504;13.478;2023-02-28T09:35:48;4.00;48.40
44121;DHT22;29783;52.504;13.478;2023-02-28T09:38:14;4.00;49.00
44121;DHT22;29783;52.504;13.478;2023-02-28T09:40:50;4.20;49.80
44121;DHT22;29783;52.504;13.478;2023-02-28T09:43:20;4.20;49.40
44121;DHT22;29783;52.504;13.478;2023-02-28T09:46:00;4.00;48.90
44121;DHT22;29783;52.504;13.478;2023-02-28T09:48:32;4.00;49.30
44121;DHT22;29783;52.504;13.478;2023-02-28T09:51:05;4.30;49.50
44121;DHT22;29783;52.504;13.478;2023-02-28T09:53:37;4.50;48.80
44121;DHT22;29783;52.504;13.478;2023-02-28T09:56:11;4.50;47.20
44121;DHT22;29783;52.504;13.478;2023-02-28T09:58:49;4.40;46.60
44121;DHT22;29783;52.504;13.478;2023-02-28T10:01:33;4.30;46.80
44121;DHT22;29783;52.504;13.478;2023-02-28T10:07:06;4.50;47.00
44121;DHT22;29783;52.504;13.478;2023-02-28T10:09:43;4.50;47.30
44121;DHT22;29783;52.504;13.478;2023-02-28T10:12:11;4.60;47.50
44121;DHT22;29783;52.504;13.478;2023-02-28T10:14:39;4.40;47.70
44121;DHT22;29783;52.504;13.478;2023-02-28T10:17:24;4.60;47.80
44121;DHT22;29783;52.504;13.478;2023-02-28T10:20:01;4.40;47.10
44121;DHT22;29783;52.504;13.478;2023-02-28T10:25:38;4.80;47.40
44121;DHT22;29783;52.504;13.478;2023-02-28T10:28:15;4.80;47.00
44121;DHT22;29783;52.504;13.478;2023-02-28T10:30:46;4.80;46.80
44121;DHT22;29783;52.504;13.478;2023-02-28T10:35:54;5.00;47.50
44121;DHT22;29783;52.504;13.478;2023-02-28T10:38:23;5.20;46.50
44121;DHT22;29783;52.504;13.478;2023-02-28T10:40:49;5.20;46.20
44121;DHT22;29783;52.504;13.478;2023-02-28T10:48:38;5.30;46.70
44121;DHT22;29783;52.504;13.478;2023-02-28T10:51:08;5.30;46.60
44121;DHT22;29783;52.504;13.478;2023-02-28T10:53:52;5.20;46.10
44121;DHT22;29783;52.504;13.478;2023-02-28T10:56:22;5.20;46.40
44121;DHT22;29783;52.504;13.478;2023-02-28T11:01:41;5.50;46.30
44121;DHT22;29783;52.504;13.478;2023-02-28T11:04:18;5.30;45.60
44121;DHT22;29783;52.504;13.478;2023-02-28T11:06:45;5.30;46.20
44121;DHT22;29783;52.504;13.478;2023-02-28T11:11:49;5.30;46.20
44121;DHT22;29783;52.504;13.478;2023-02-28T11:14:21;5.30;46.50
44121;DHT22;29783;52.504;13.478;2023-02-28T11:16:48;5.40;46.70
44121;DHT22;29783;52.504;13.478;2023-02-28T11:19:35;5.40;45.90
44121;DHT22;29783;52.504;13.478;2023-02-28T11:22:04;5.50;46.50
44121;DHT22;29783;52.504;13.478;2023-02-28T11:24:37;5.50;46.00
44121;DHT22;29783;52.504;13.478;2023-02-28T11:29:56;5.60;47.20
44121;DHT22;29783;52.504;13.478;2023-02-28T11:32:23;5.60;47.20
44121;DHT22;29783;52.504;13.478;2023-02-28T11:37:35;6.00;46.50
44121;DHT22;29783;52.504;13.478;2023-02-28T11:40:02;5.80;45.50
44121;DHT22;29783;52.504;13.478;2023-02-28T11:42:55;6.00;45.80
44121;DHT22;29783;52.504;13.478;2023-02-28T11:56:14;5.80;46.70
44121;DHT22;29783;52.504;13.478;2023-02-28T12:01:50;5.70;46.40
44121;DHT22;29783;52.504;13.478;2023-02-28T12:07:56;5.80;46.20
44121;DHT22;29783;52.504;13.478;2023-02-28T12:10:29;6.00;45.90
44121;DHT22;29783;52.504;13.478;2023-02-28T12:21:02;6.10;45.30
44121;DHT22;29783;52.504;13.478;2023-02-28T12:29:20;6.30;44.30
44121;DHT22;29783;52.504;13.478;2023-02-28T12:32:10;6.30;44.30
44121;DHT22;29783;52.504;13.478;2023-02-28T12:34:43;6.30;44.60
44121;DHT22;29783;52.504;13.478;2023-02-28T12:37:21;6.30;44.00
44121;DHT22;29783;52.504;13.478;2023-02-28T12:39:56;6.20;43.40
44121;DHT22;29783;52.504;13.478;2023-02-28T12:42:30;6.20;43.40
44121;DHT22;29783;52.504;13.478;2023-02-28T12:45:01;6.20;43.70
44121;DHT22;29783;52.504;13.478;2023-02-28T12:47:27;6.30;43.30
44121;DHT22;29783;52.504;13.478;2023-02-28T12:49:59;7.30;42.30
44121;DHT22;29783;52.504;13.478;2023-02-28T12:52:54;8.20;40.10
44121;DHT22;29783;52.504;13.478;2023-02-28T12:55:35;9.40;37.20
44121;DHT22;29783;52.504;13.478;2023-02-28T13:01:31;10.10;35.70
44121;DHT22;29783;52.504;13.478;2023-02-28T13:04:45;10.70;33.80
44121;DHT22;29783;52.504;13.478;2023-02-28T13:10:16;11.80;32.50
44121;DHT22;29783;52.504;13.478;2023-02-28T13:12:49;12.70;32.20
44121;DHT22;29783;52.504;13.478;2023-02-28T13:17:49;13.20;30.90
44121;DHT22;29783;52.504;13.478;2023-02-28T13:20:20;13.50;30.20
44121;DHT22;29783;52.504;13.478;2023-02-28T13:22:49;13.00;29.90
44121;DHT22;29783;52.504;13.478;2023-02-28T13:27:49;15.30;28.00
44121;DHT22;29783;52.504;13.478;2023-02-28T13:33:34;14.90;28.20
44121;DHT22;29783;52.504;13.478;2023-02-28T13:38:57;15.80;27.00
44121;DHT22;29783;52.504;13.478;2023-02-28T13:51:52;14.40;28.10
44121;DHT22;29783;52.504;13.478;2023-02-28T14:05:32;15.30;27.50
44121;DHT22;29783;52.504;13.478;2023-02-28T14:08:14;15.20;27.70
44121;DHT22;29783;52.504;13.478;2023-02-28T14:11:03;15.60;26.70
44121;DHT22;29783;52.504;13.478;2023-02-28T14:13:42;15.90;25.90
44121;DHT22;29783;52.504;13.478;2023-02-28T14:16:21;15.00;27.60
44121;DHT22;29783;52.504;13.478;2023-02-28T14:18:56;14.50;28.70
44121;DHT22;29783;52.504;13.478;2023-02-28T14:21:29;15.50;26.90
44121;DHT22;29783;52.504;13.478;2023-02-28T14:27:05;15.00;28.30
44121;DHT22;29783;52.504;13.478;2023-02-28T14:32:35;15.30;26.80
44121;DHT22;29783;52.504;13.478;2023-02-28T14:35:28;14.70;27.40
44121;DHT22;29783;52.504;13.478;2023-02-28T14:37:55;14.80;27.60
44121;DHT22;29783;52.504;13.478;2023-02-28T14:43:05;13.80;28.60
44121;DHT22;29783;52.504;13.478;2023-02-28T14:45:33;14.00;29.20
44121;DHT22;29783;52.504;13.478;2023-02-28T14:48:01;14.80;28.10
44121;DHT22;29783;52.504;13.478;2023-02-28T14:50:34;14.90;27.30
44121;DHT22;29783;52.504;13.478;2023-02-28T14:53:00;14.50;28.40
44121;DHT22;29783;52.504;13.478;2023-02-28T14:55:30;15.10;27.20
44121;DHT22;29783;52.504;13.478;2023-02-28T14:57:59;14.90;27.40
44121;DHT22;29783;52.504;13.478;2023-02-28T15:00:30;15.30;26.60
44121;DHT22;29783;52.504;13.478;2023-02-28T15:02:58;14.80;27.40
44121;DHT22;29783;52.504;13.478;2023-02-28T15:05:32;14.60;27.30
44121;DHT22;29783;52.504;13.478;2023-02-28T15:08:25;14.30;28.30
44121;DHT22;29783;52.504;13.478;2023-02-28T15:11:08;14.70;27.50
44121;DHT22;29783;52.504;13.478;2023-02-28T15:13:43;14.20;28.20
44121;DHT22;29783;52.504;13.478;2023-02-28T15:16:13;14.30;28.20
44121;DHT22;29783;52.504;13.478;2023-02-28T15:18:48;14.10;28.70
44121;DHT22;29783;52.504;13.478;2023-02-28T15:21:17;13.70;29.00
44121;DHT22;29783;52.504;13.478;2023-02-28T15:23:46;13.50;29.80
44121;DHT22;29783;52.504;13.478;2023-02-28T15:26:20;13.50;30.10
44121;DHT22;29783;52.504;13.478;2023-02-28T15:28:50;13.70;29.50
44121;DHT22;29783;52.504;13.478;2023-02-28T15:31:35;13.50;30.40
44121;DHT22;29783;52.504;13.478;2023-02-28T15:34:06;13.60;30.40
44121;DHT22;29783;52.504;13.478;2023-02-28T15:36:41;13.20;30.30
44121;DHT22;29783;52.504;13.478;2023-02-28T15:39:22;13.50;29.70
44121;DHT22;29783;52.504;13.478;2023-02-28T15:41:48;13.10;30.00
44121;DHT22;29783;52.504;13.478;2023-02-28T15:44:25;13.20;30.40
44121;DHT22;29783;52.504;13.478;2023-02-28T15:47:05;12.90;31.00
44121;DHT22;29783;52.504;13.478;2023-02-28T15:49:59;13.10;30.50
44121;DHT22;29783;52.504;13.478;2023-02-28T15:55:27;12.30;31.40
44121;DHT22;29783;52.504;13.478;2023-02-28T15:57:55;12.10;32.40
44121;DHT22;29783;52.504;13.478;2023-02-28T16:00:26;11.50;33.30
44121;DHT22;29783;52.504;13.478;2023-02-28T16:02:52;11.50;32.90
44121;DHT22;29783;52.504;13.478;2023-02-28T16:07:46;10.00;35.30
44121;DHT22;29783;52.504;13.478;2023-02-28T16:10:14;9.80;36.20
44121;DHT22;29783;52.504;13.478;2023-02-28T16:12:40;10.00;35.60
44121;DHT22;29783;52.504;13.478;2023-02-28T16:15:19;9.10;36.70
44121;DHT22;29783;52.504;13.478;2023-02-28T16:17:46;8.60;39.00
44121;DHT22;29783;52.504;13.478;2023-02-28T16:22:44;7.80;40.00
44121;DHT22;29783;52.504;13.478;2023-02-28T16:25:15;7.30;41.60
44121;DHT22;29783;52.504;13.478;2023-02-28T16:27:43;6.90;42.60
44121;DHT22;29783;52.504;13.478;2023-02-28T16:30:24;6.60;43.20
44121;DHT22;29783;52.504;13.478;2023-02-28T16:32:51;6.30;43.80
44121;DHT22;29783;52.504;13.478;2023-02-28T16:35:18;6.00;44.80
44121;DHT22;29783;52.504;13.478;2023-02-28T16:38:09;5.70;46.20
44121;DHT22;29783;52.504;13.478;2023-02-28T16:40:40;5.40;47.30
44121;DHT22;29783;52.504;13.478;2023-02-28T16:43:18;5.30;47.50
44121;DHT22;29783;52.504;13.478;2023-02-28T16:45:45;5.00;48.30
44121;DHT22;29783;52.504;13.478;2023-02-28T16:48:13;4.90;50.10
44121;DHT22;29783;52.504;13.478;2023-02-28T16:50:39;4.70;49.50
44121;DHT22;29783;52.504;13.478;2023-02-28T16:53:05;4.50;49.10
44121;DHT22;29783;52.504;13.478;2023-02-28T16:55:31;4.40;49.60
44121;DHT22;29783;52.504;13.478;2023-02-28T16:57:58;4.30;50.70
44121;DHT22;29783;52.504;13.478;2023-02-28T17:00:25;4.20;50.70
44121;DHT22;29783;52.504;13.478;2023-02-28T17:02:51;4.00;51.10
44121;DHT22;29783;52.504;13.478;2023-02-28T17:05:17;3.80;51.60
44121;DHT22;29783;52.504;13.478;2023-02-28T17:07:44;3.80;51.90
44121;DHT22;29783;52.504;13.478;2023-02-28T17:10:13;3.70;51.80
44121;DHT22;29783;52.504;13.478;2023-02-28T17:12:39;3.50;52.40
44121;DHT22;29783;52.504;13.478;2023-02-28T17:15:05;3.40;52.50
44121;DHT22;29783;52.504;13.478;2023-02-28T17:17:31;3.30;53.00
44121;DHT22;29783;52.504;13.478;2023-02-28T17:19:58;3.30;53.40
44121;DHT22;29783;52.504;13.478;2023-02-28T17:22:23;3.20;53.80
44121;DHT22;29783;52.504;13.478;2023-02-28T17:24:51;3.10;54.30
44121;DHT22;29783;52.504;13.478;2023-02-28T17:27:21;3.00;54.70
44121;DHT22;29783;52.504;13.478;2023-02-28T17:29:47;2.90;55.40
44121;DHT22;29783;52.504;13.478;2023-02-28T17:32:12;2.90;56.00
44121;DHT22;29783;52.504;13.478;2023-02-28T17:34:38;2.80;55.60
44121;DHT22;29783;52.504;13.478;2023-02-28T17:37:04;2.70;55.90
44121;DHT22;29783;52.504;13.478;2023-02-28T17:39:30;2.70;56.40
44121;DHT22;29783;52.504;13.478;2023-02-28T17:41:56;2.60;56.90
44121;DHT22;29783;52.504;13.478;2023-02-28T17:44:22;2.50;57.10
44121;DHT22;29783;52.504;13.478;2023-02-28T17:46:52;2.40;57.40
44121;DHT22;29783;52.504;13.478;2023-02-28T17:49:19;2.40;57.60
44121;DHT22;29783;52.504;13.478;2023-02-28T17:51:45;2.30;58.10
44121;DHT22;29783;52.504;13.478;2023-02-28T17:54:11;2.30;58.40
44121;DHT22;29783;52.504;13.478;2023-02-28T17:56:37;2.20;58.60
44121;DHT22;29783;52.504;13.478;2023-02-28T17:59:03;2.10;58.80